sensor_id;sensor_type;location;lat;lon;timestamp;P1;durP1;ratioP1;P2;durP2;ratioP2
14060;SDS011;7105;43.616;1.434;2022-11-24T00:01:28;20.67;;;4.60;;
14060;SDS011;7105;43.616;1.434;2022-11-24T00:03:59;21.37;;;5.40;;
14060;SDS011;7105;43.616;1.434;2022-11-24T00:06:26;20.27;;;5.00;;
14060;SDS011;7105;43.616;1.434;2022-11-24T00:08:53;18.87;;;4.53;;
14060;SDS011;7105;43.616;1.434;2022-11-24T00:11:30;22.30;;;5.40;;
14060;SDS011;7105;43.616;1.434;2022-11-24T00:13:57;16.17;;;4.30;;
14060;SDS011;7105;43.616;1.434;2022-11-24T00:18:54;13.97;;;4.40;;
14060;SDS011;7105;43.616;1.434;2022-11-24T00:21:22;18.43;;;4.40;;
14060;SDS011;7105;43.616;1.434;2022-11-24T00:23:48;15.03;;;4.40;;
14060;SDS011;7105;43.616;1.434;2022-11-24T00:26:15;17.90;;;4.17;;
14060;SDS011;7105;43.616;1.434;2022-11-24T00:28:55;25.30;;;4.97;;
14060;SDS011;7105;43.616;1.434;2022-11-24T00:31:27;19.90;;;5.43;;
14060;SDS011;7105;43.616;1.434;2022-11-24T00:34:03;17.03;;;5.00;;
14060;SDS011;7105;43.616;1.434;2022-11-24T00:36:32;21.40;;;5.17;;
14060;SDS011;7105;43.616;1.434;2022-11-24T00:38:59;21.13;;;5.40;;
14060;SDS011;7105;43.616;1.434;2022-11-24T00:41:27;22.73;;;5.07;;
14060;SDS011;7105;43.616;1.434;2022-11-24T00:43:53;22.83;;;5.50;;
14060;SDS011;7105;43.616;1.434;2022-11-24T00:46:20;24.77;;;5.50;;
14060;SDS011;7105;43.616;1.434;2022-11-24T00:48:46;21.93;;;6.20;;
14060;SDS011;7105;43.616;1.434;2022-11-24T00:51:13;22.60;;;6.00;;
14060;SDS011;7105;43.616;1.434;2022-11-24T00:53:40;22.27;;;5.33;;
14060;SDS011;7105;43.616;1.434;2022-11-24T00:56:06;17.87;;;5.73;;
14060;SDS011;7105;43.616;1.434;2022-11-24T00:58:33;20.90;;;5.67;;
14060;SDS011;7105;43.616;1.434;2022-11-24T01:01:03;16.37;;;4.73;;
14060;SDS011;7105;43.616;1.434;2022-11-24T01:03:30;20.10;;;5.67;;
14060;SDS011;7105;43.616;1.434;2022-11-24T01:06:01;21.77;;;5.33;;
14060;SDS011;7105;43.616;1.434;2022-11-24T01:08:28;21.20;;;8.60;;
14060;SDS011;7105;43.616;1.434;2022-11-24T01:10:54;18.10;;;6.43;;
14060;SDS011;7105;43.616;1.434;2022-11-24T01:13:29;22.40;;;6.33;;
14060;SDS011;7105;43.616;1.434;2022-11-24T01:15:55;17.07;;;6.10;;
14060;SDS011;7105;43.616;1.434;2022-11-24T01:18:20;21.13;;;5.70;;
14060;SDS011;7105;43.616;1.434;2022-11-24T01:20:46;21.37;;;5.13;;
14060;SDS011;7105;43.616;1.434;2022-11-24T01:23:12;18.70;;;5.67;;
14060;SDS011;7105;43.616;1.434;2022-11-24T01:25:38;22.07;;;5.83;;
14060;SDS011;7105;43.616;1.434;2022-11-24T01:28:04;18.13;;;5.13;;
14060;SDS011;7105;43.616;1.434;2022-11-24T01:30:38;18.57;;;5.40;;
14060;SDS011;7105;43.616;1.434;2022-11-24T01:33:04;28.03;;;5.90;;
14060;SDS011;7105;43.616;1.434;2022-11-24T01:35:29;20.50;;;5.27;;
14060;SDS011;7105;43.616;1.434;2022-11-24T01:37:55;22.47;;;5.40;;
14060;SDS011;7105;43.616;1.434;2022-11-24T01:40:21;20.33;;;4.50;;
14060;SDS011;7105;43.616;1.434;2022-11-24T01:42:48;16.87;;;4.47;;
14060;SDS011;7105;43.616;1.434;2022-11-24T01:45:34;19.40;;;4.53;;
14060;SDS011;7105;43.616;1.434;2022-11-24T01:48:05;19.33;;;4.83;;
14060;SDS011;7105;43.616;1.434;2022-11-24T01:50:37;20.07;;;4.53;;
14060;SDS011;7105;43.616;1.434;2022-11-24T01:53:05;13.43;;;4.90;;
14060;SDS011;7105;43.616;1.434;2022-11-24T01:55:33;18.03;;;4.50;;
14060;SDS011;7105;43.616;1.434;2022-11-24T02:00:27;13.47;;;4.13;;
14060;SDS011;7105;43.616;1.434;2022-11-24T02:02:52;15.67;;;4.70;;
14060;SDS011;7105;43.616;1.434;2022-11-24T02:07:59;15.23;;;3.90;;
14060;SDS011;7105;43.616;1.434;2022-11-24T02:10:26;14.70;;;3.57;;
14060;SDS011;7105;43.616;1.434;2022-11-24T02:12:52;16.67;;;4.20;;
14060;SDS011;7105;43.616;1.434;2022-11-24T02:15:20;14.10;;;4.57;;
14060;SDS011;7105;43.616;1.434;2022-11-24T02:17:46;19.73;;;4.60;;
14060;SDS011;7105;43.616;1.434;2022-11-24T02:20:12;14.60;;;4.40;;
14060;SDS011;7105;43.616;1.434;2022-11-24T02:28:34;16.67;;;4.23;;
14060;SDS011;7105;43.616;1.434;2022-11-24T02:31:00;12.43;;;4.13;;
14060;SDS011;7105;43.616;1.434;2022-11-24T02:33:27;20.47;;;4.30;;
14060;SDS011;7105;43.616;1.434;2022-11-24T02:35:53;12.13;;;4.47;;
14060;SDS011;7105;43.616;1.434;2022-11-24T02:38:27;15.33;;;4.43;;
14060;SDS011;7105;43.616;1.434;2022-11-24T02:40:56;10.57;;;4.50;;
14060;SDS011;7105;43.616;1.434;2022-11-24T02:43:24;11.53;;;4.30;;
14060;SDS011;7105;43.616;1.434;2022-11-24T02:45:53;14.90;;;4.50;;
14060;SDS011;7105;43.616;1.434;2022-11-24T02:48:19;12.63;;;4.90;;
14060;SDS011;7105;43.616;1.434;2022-11-24T02:50:45;16.93;;;4.93;;
14060;SDS011;7105;43.616;1.434;2022-11-24T02:53:10;14.80;;;4.27;;
14060;SDS011;7105;43.616;1.434;2022-11-24T02:55:36;15.07;;;4.20;;
14060;SDS011;7105;43.616;1.434;2022-11-24T02:58:02;13.50;;;4.37;;
14060;SDS011;7105;43.616;1.434;2022-11-24T03:00:27;11.30;;;4.73;;
14060;SDS011;7105;43.616;1.434;2022-11-24T03:02:53;10.83;;;4.07;;
14060;SDS011;7105;43.616;1.434;2022-11-24T03:05:18;14.83;;;4.57;;
14060;SDS011;7105;43.616;1.434;2022-11-24T03:07:44;10.63;;;5.00;;
14060;SDS011;7105;43.616;1.434;2022-11-24T03:10:10;11.87;;;4.43;;
14060;SDS011;7105;43.616;1.434;2022-11-24T03:12:35;13.80;;;4.60;;
14060;SDS011;7105;43.616;1.434;2022-11-24T03:15:01;11.97;;;4.70;;
14060;SDS011;7105;43.616;1.434;2022-11-24T03:17:27;10.57;;;4.50;;
14060;SDS011;7105;43.616;1.434;2022-11-24T03:19:53;13.17;;;4.50;;
14060;SDS011;7105;43.616;1.434;2022-11-24T03:22:19;19.40;;;4.67;;
14060;SDS011;7105;43.616;1.434;2022-11-24T03:24:44;10.00;;;4.00;;
14060;SDS011;7105;43.616;1.434;2022-11-24T03:27:10;10.87;;;4.13;;
14060;SDS011;7105;43.616;1.434;2022-11-24T03:29:36;15.97;;;4.60;;
14060;SDS011;7105;43.616;1.434;2022-11-24T03:32:01;11.23;;;4.03;;
14060;SDS011;7105;43.616;1.434;2022-11-24T03:34:27;9.53;;;3.83;;
14060;SDS011;7105;43.616;1.434;2022-11-24T03:36:52;14.33;;;4.20;;
14060;SDS011;7105;43.616;1.434;2022-11-24T03:39:18;9.37;;;4.10;;
14060;SDS011;7105;43.616;1.434;2022-11-24T03:41:44;10.70;;;3.93;;
14060;SDS011;7105;43.616;1.434;2022-11-24T03:44:09;12.77;;;4.23;;
14060;SDS011;7105;43.616;1.434;2022-11-24T03:46:35;12.10;;;4.33;;
14060;SDS011;7105;43.616;1.434;2022-11-24T03:49:01;12.20;;;3.67;;
14060;SDS011;7105;43.616;1.434;2022-11-24T03:51:26;9.97;;;4.20;;
14060;SDS011;7105;43.616;1.434;2022-11-24T03:53:52;9.17;;;4.43;;
14060;SDS011;7105;43.616;1.434;2022-11-24T03:56:18;13.97;;;4.80;;
14060;SDS011;7105;43.616;1.434;2022-11-24T03:58:44;12.40;;;5.23;;
14060;SDS011;7105;43.616;1.434;2022-11-24T04:01:10;10.17;;;4.63;;
14060;SDS011;7105;43.616;1.434;2022-11-24T04:03:36;15.30;;;5.40;;
14060;SDS011;7105;43.616;1.434;2022-11-24T04:06:01;10.97;;;5.50;;
14060;SDS011;7105;43.616;1.434;2022-11-24T04:08:27;12.47;;;5.10;;
14060;SDS011;7105;43.616;1.434;2022-11-24T04:10:53;15.67;;;5.27;;
14060;SDS011;7105;43.616;1.434;2022-11-24T04:13:20;10.33;;;4.60;;
14060;SDS011;7105;43.616;1.434;2022-11-24T04:15:47;11.23;;;5.03;;
14060;SDS011;7105;43.616;1.434;2022-11-24T04:18:13;13.50;;;4.47;;
14060;SDS011;7105;43.616;1.434;2022-11-24T04:20:39;15.83;;;5.00;;
14060;SDS011;7105;43.616;1.434;2022-11-24T04:23:06;12.10;;;4.40;;
14060;SDS011;7105;43.616;1.434;2022-11-24T04:25:32;9.07;;;4.50;;
14060;SDS011;7105;43.616;1.434;2022-11-24T04:27:58;13.07;;;4.23;;
14060;SDS011;7105;43.616;1.434;2022-11-24T04:30:24;11.57;;;4.47;;
14060;SDS011;7105;43.616;1.434;2022-11-24T04:32:51;12.50;;;3.83;;
14060;SDS011;7105;43.616;1.434;2022-11-24T04:35:17;12.23;;;3.83;;
14060;SDS011;7105;43.616;1.434;2022-11-24T04:37:43;10.33;;;4.13;;
14060;SDS011;7105;43.616;1.434;2022-11-24T04:40:09;8.20;;;3.53;;
14060;SDS011;7105;43.616;1.434;2022-11-24T04:42:36;13.07;;;4.83;;
14060;SDS011;7105;43.616;1.434;2022-11-24T04:45:02;9.07;;;3.57;;
14060;SDS011;7105;43.616;1.434;2022-11-24T04:47:29;13.07;;;4.17;;
14060;SDS011;7105;43.616;1.434;2022-11-24T04:49:54;9.67;;;4.20;;
14060;SDS011;7105;43.616;1.434;2022-11-24T04:52:21;10.80;;;3.87;;
14060;SDS011;7105;43.616;1.434;2022-11-24T04:54:48;10.50;;;3.33;;
14060;SDS011;7105;43.616;1.434;2022-11-24T04:57:17;11.07;;;4.07;;
14060;SDS011;7105;43.616;1.434;2022-11-24T04:59:48;8.23;;;2.97;;
14060;SDS011;7105;43.616;1.434;2022-11-24T05:02:15;9.37;;;3.67;;
14060;SDS011;7105;43.616;1.434;2022-11-24T05:04:41;11.20;;;3.47;;
14060;SDS011;7105;43.616;1.434;2022-11-24T05:07:09;12.70;;;4.20;;
14060;SDS011;7105;43.616;1.434;2022-11-24T05:09:35;14.37;;;3.70;;
14060;SDS011;7105;43.616;1.434;2022-11-24T05:12:21;9.63;;;3.70;;
14060;SDS011;7105;43.616;1.434;2022-11-24T05:14:48;11.57;;;3.57;;
14060;SDS011;7105;43.616;1.434;2022-11-24T05:17:14;8.17;;;3.03;;
14060;SDS011;7105;43.616;1.434;2022-11-24T05:19:40;14.33;;;3.77;;
14060;SDS011;7105;43.616;1.434;2022-11-24T05:22:05;7.13;;;3.53;;
14060;SDS011;7105;43.616;1.434;2022-11-24T05:24:31;7.07;;;3.27;;
14060;SDS011;7105;43.616;1.434;2022-11-24T05:26:57;11.30;;;3.30;;
14060;SDS011;7105;43.616;1.434;2022-11-24T05:29:22;6.80;;;3.27;;
14060;SDS011;7105;43.616;1.434;2022-11-24T05:31:48;8.20;;;3.30;;
14060;SDS011;7105;43.616;1.434;2022-11-24T05:34:13;14.03;;;3.83;;
14060;SDS011;7105;43.616;1.434;2022-11-24T05:36:39;10.13;;;3.30;;
14060;SDS011;7105;43.616;1.434;2022-11-24T05:39:17;10.97;;;3.60;;
14060;SDS011;7105;43.616;1.434;2022-11-24T05:41:43;6.73;;;3.33;;
14060;SDS011;7105;43.616;1.434;2022-11-24T05:44:09;9.30;;;3.50;;
14060;SDS011;7105;43.616;1.434;2022-11-24T05:46:35;8.60;;;3.47;;
14060;SDS011;7105;43.616;1.434;2022-11-24T05:49:01;12.60;;;3.20;;
14060;SDS011;7105;43.616;1.434;2022-11-24T05:51:27;10.20;;;2.97;;
14060;SDS011;7105;43.616;1.434;2022-11-24T05:53:53;12.00;;;3.90;;
14060;SDS011;7105;43.616;1.434;2022-11-24T05:56:18;7.97;;;3.07;;
14060;SDS011;7105;43.616;1.434;2022-11-24T05:58:44;8.40;;;3.50;;
14060;SDS011;7105;43.616;1.434;2022-11-24T06:01:10;10.03;;;2.97;;
14060;SDS011;7105;43.616;1.434;2022-11-24T06:03:35;12.17;;;3.17;;
14060;SDS011;7105;43.616;1.434;2022-11-24T06:06:01;11.23;;;3.60;;
14060;SDS011;7105;43.616;1.434;2022-11-24T06:08:27;7.73;;;3.07;;
14060;SDS011;7105;43.616;1.434;2022-11-24T06:10:53;11.50;;;3.23;;
14060;SDS011;7105;43.616;1.434;2022-11-24T06:13:18;8.77;;;2.93;;
14060;SDS011;7105;43.616;1.434;2022-11-24T06:15:44;9.23;;;2.80;;
14060;SDS011;7105;43.616;1.434;2022-11-24T06:18:10;7.60;;;2.67;;
14060;SDS011;7105;43.616;1.434;2022-11-24T06:20:36;8.40;;;2.93;;
14060;SDS011;7105;43.616;1.434;2022-11-24T06:23:01;11.00;;;3.50;;
14060;SDS011;7105;43.616;1.434;2022-11-24T06:25:27;10.40;;;3.23;;
14060;SDS011;7105;43.616;1.434;2022-11-24T06:27:53;14.97;;;3.53;;
14060;SDS011;7105;43.616;1.434;2022-11-24T06:30:19;7.50;;;3.47;;
14060;SDS011;7105;43.616;1.434;2022-11-24T06:32:44;12.23;;;3.37;;
14060;SDS011;7105;43.616;1.434;2022-11-24T06:35:11;9.67;;;3.40;;
14060;SDS011;7105;43.616;1.434;2022-11-24T06:37:38;10.97;;;3.40;;
14060;SDS011;7105;43.616;1.434;2022-11-24T06:40:04;12.80;;;3.90;;
14060;SDS011;7105;43.616;1.434;2022-11-24T06:42:32;12.57;;;3.83;;
14060;SDS011;7105;43.616;1.434;2022-11-24T06:44:59;12.20;;;3.57;;
14060;SDS011;7105;43.616;1.434;2022-11-24T06:47:24;9.30;;;3.67;;
14060;SDS011;7105;43.616;1.434;2022-11-24T06:49:50;10.40;;;3.37;;
14060;SDS011;7105;43.616;1.434;2022-11-24T06:52:16;8.43;;;3.83;;
14060;SDS011;7105;43.616;1.434;2022-11-24T06:54:41;12.03;;;4.47;;
14060;SDS011;7105;43.616;1.434;2022-11-24T06:57:07;10.37;;;4.07;;
14060;SDS011;7105;43.616;1.434;2022-11-24T06:59:33;10.70;;;4.50;;
14060;SDS011;7105;43.616;1.434;2022-11-24T07:01:58;14.77;;;4.40;;
14060;SDS011;7105;43.616;1.434;2022-11-24T07:04:24;13.03;;;4.23;;
14060;SDS011;7105;43.616;1.434;2022-11-24T07:06:50;12.27;;;3.90;;
14060;SDS011;7105;43.616;1.434;2022-11-24T07:09:15;13.20;;;4.47;;
14060;SDS011;7105;43.616;1.434;2022-11-24T07:11:41;9.97;;;4.17;;
14060;SDS011;7105;43.616;1.434;2022-11-24T07:14:07;11.73;;;4.57;;
14060;SDS011;7105;43.616;1.434;2022-11-24T07:16:33;10.60;;;4.73;;
14060;SDS011;7105;43.616;1.434;2022-11-24T07:18:59;11.83;;;4.40;;
14060;SDS011;7105;43.616;1.434;2022-11-24T07:21:25;13.57;;;6.20;;
14060;SDS011;7105;43.616;1.434;2022-11-24T07:23:52;12.73;;;5.67;;
14060;SDS011;7105;43.616;1.434;2022-11-24T07:26:20;13.47;;;6.07;;
14060;SDS011;7105;43.616;1.434;2022-11-24T07:28:46;11.23;;;4.33;;
14060;SDS011;7105;43.616;1.434;2022-11-24T07:31:13;9.17;;;4.37;;
14060;SDS011;7105;43.616;1.434;2022-11-24T07:33:41;8.70;;;4.47;;
14060;SDS011;7105;43.616;1.434;2022-11-24T07:36:07;14.07;;;4.73;;
14060;SDS011;7105;43.616;1.434;2022-11-24T07:38:34;11.97;;;4.53;;
14060;SDS011;7105;43.616;1.434;2022-11-24T07:41:00;13.67;;;4.37;;
14060;SDS011;7105;43.616;1.434;2022-11-24T07:43:36;23.10;;;7.57;;
14060;SDS011;7105;43.616;1.434;2022-11-24T07:46:03;21.10;;;8.73;;
14060;SDS011;7105;43.616;1.434;2022-11-24T07:48:30;23.53;;;9.07;;
14060;SDS011;7105;43.616;1.434;2022-11-24T07:50:59;22.10;;;8.57;;
14060;SDS011;7105;43.616;1.434;2022-11-24T07:53:27;24.63;;;8.67;;
14060;SDS011;7105;43.616;1.434;2022-11-24T07:55:53;17.50;;;9.20;;
14060;SDS011;7105;43.616;1.434;2022-11-24T07:58:20;17.37;;;8.40;;
14060;SDS011;7105;43.616;1.434;2022-11-24T08:00:46;17.47;;;8.80;;
14060;SDS011;7105;43.616;1.434;2022-11-24T08:03:11;20.23;;;8.93;;
14060;SDS011;7105;43.616;1.434;2022-11-24T08:05:37;16.60;;;9.13;;
14060;SDS011;7105;43.616;1.434;2022-11-24T08:08:03;24.73;;;9.27;;
14060;SDS011;7105;43.616;1.434;2022-11-24T08:10:29;21.57;;;8.47;;
14060;SDS011;7105;43.616;1.434;2022-11-24T08:12:58;15.57;;;7.70;;
14060;SDS011;7105;43.616;1.434;2022-11-24T08:15:24;21.63;;;8.87;;
14060;SDS011;7105;43.616;1.434;2022-11-24T08:17:50;11.40;;;5.80;;
14060;SDS011;7105;43.616;1.434;2022-11-24T08:20:16;18.27;;;5.30;;
14060;SDS011;7105;43.616;1.434;2022-11-24T08:22:42;12.40;;;5.27;;
14060;SDS011;7105;43.616;1.434;2022-11-24T08:25:08;13.03;;;5.60;;
14060;SDS011;7105;43.616;1.434;2022-11-24T08:27:34;13.33;;;5.93;;
14060;SDS011;7105;43.616;1.434;2022-11-24T08:30:00;15.73;;;5.07;;
14060;SDS011;7105;43.616;1.434;2022-11-24T08:32:26;14.53;;;5.60;;
14060;SDS011;7105;43.616;1.434;2022-11-24T08:34:51;13.77;;;5.53;;
14060;SDS011;7105;43.616;1.434;2022-11-24T08:37:17;13.03;;;5.43;;
14060;SDS011;7105;43.616;1.434;2022-11-24T08:39:43;15.47;;;6.23;;
14060;SDS011;7105;43.616;1.434;2022-11-24T08:42:09;13.73;;;5.67;;
14060;SDS011;7105;43.616;1.434;2022-11-24T08:44:34;11.43;;;6.00;;
14060;SDS011;7105;43.616;1.434;2022-11-24T08:47:00;12.70;;;6.17;;
14060;SDS011;7105;43.616;1.434;2022-11-24T08:49:26;18.30;;;6.87;;
14060;SDS011;7105;43.616;1.434;2022-11-24T08:51:51;11.47;;;6.73;;
14060;SDS011;7105;43.616;1.434;2022-11-24T08:54:17;15.10;;;6.03;;
14060;SDS011;7105;43.616;1.434;2022-11-24T08:56:43;14.90;;;6.87;;
14060;SDS011;7105;43.616;1.434;2022-11-24T08:59:12;14.73;;;6.60;;
14060;SDS011;7105;43.616;1.434;2022-11-24T09:01:38;17.67;;;7.03;;
14060;SDS011;7105;43.616;1.434;2022-11-24T09:04:05;14.57;;;6.30;;
14060;SDS011;7105;43.616;1.434;2022-11-24T09:06:31;15.77;;;6.40;;
14060;SDS011;7105;43.616;1.434;2022-11-24T09:08:57;13.97;;;5.20;;
14060;SDS011;7105;43.616;1.434;2022-11-24T09:11:24;13.27;;;5.50;;
14060;SDS011;7105;43.616;1.434;2022-11-24T09:13:51;12.43;;;4.77;;
14060;SDS011;7105;43.616;1.434;2022-11-24T09:16:18;11.67;;;3.57;;
14060;SDS011;7105;43.616;1.434;2022-11-24T09:18:45;13.03;;;4.70;;
14060;SDS011;7105;43.616;1.434;2022-11-24T09:21:15;10.13;;;4.10;;
14060;SDS011;7105;43.616;1.434;2022-11-24T09:23:44;9.37;;;4.73;;
14060;SDS011;7105;43.616;1.434;2022-11-24T09:26:13;11.40;;;5.10;;
14060;SDS011;7105;43.616;1.434;2022-11-24T09:28:41;12.93;;;4.70;;
14060;SDS011;7105;43.616;1.434;2022-11-24T09:31:08;8.17;;;4.30;;
14060;SDS011;7105;43.616;1.434;2022-11-24T09:33:35;10.93;;;4.60;;
14060;SDS011;7105;43.616;1.434;2022-11-24T09:36:01;11.67;;;4.83;;
14060;SDS011;7105;43.616;1.434;2022-11-24T09:38:27;10.73;;;5.17;;
14060;SDS011;7105;43.616;1.434;2022-11-24T09:40:53;9.73;;;4.43;;
14060;SDS011;7105;43.616;1.434;2022-11-24T09:43:39;12.93;;;4.23;;
14060;SDS011;7105;43.616;1.434;2022-11-24T09:46:27;8.87;;;4.03;;
14060;SDS011;7105;43.616;1.434;2022-11-24T09:49:15;11.27;;;4.63;;
14060;SDS011;7105;43.616;1.434;2022-11-24T09:51:48;9.60;;;3.87;;
14060;SDS011;7105;43.616;1.434;2022-11-24T09:54:19;10.27;;;4.50;;
14060;SDS011;7105;43.616;1.434;2022-11-24T09:56:50;11.73;;;4.17;;
14060;SDS011;7105;43.616;1.434;2022-11-24T09:59:17;9.13;;;3.53;;
14060;SDS011;7105;43.616;1.434;2022-11-24T10:01:45;15.13;;;4.63;;
14060;SDS011;7105;43.616;1.434;2022-11-24T10:20:23;9.43;;;3.80;;
14060;SDS011;7105;43.616;1.434;2022-11-24T10:23:15;11.53;;;3.90;;
14060;SDS011;7105;43.616;1.434;2022-11-24T10:25:47;14.10;;;4.13;;
14060;SDS011;7105;43.616;1.434;2022-11-24T10:28:34;10.73;;;4.07;;
14060;SDS011;7105;43.616;1.434;2022-11-24T10:33:47;10.30;;;4.33;;
14060;SDS011;7105;43.616;1.434;2022-11-24T10:36:21;8.80;;;3.60;;
14060;SDS011;7105;43.616;1.434;2022-11-24T10:38:57;10.27;;;4.17;;
14060;SDS011;7105;43.616;1.434;2022-11-24T10:41:41;9.63;;;3.70;;
14060;SDS011;7105;43.616;1.434;2022-11-24T10:44:26;9.33;;;3.97;;
14060;SDS011;7105;43.616;1.434;2022-11-24T10:46:52;12.20;;;4.00;;
14060;SDS011;7105;43.616;1.434;2022-11-24T10:49:19;9.93;;;3.90;;
14060;SDS011;7105;43.616;1.434;2022-11-24T10:52:06;10.33;;;4.33;;
14060;SDS011;7105;43.616;1.434;2022-11-24T10:54:51;12.90;;;4.63;;
14060;SDS011;7105;43.616;1.434;2022-11-24T10:57:29;11.47;;;3.93;;
14060;SDS011;7105;43.616;1.434;2022-11-24T11:00:00;14.47;;;4.33;;
14060;SDS011;7105;43.616;1.434;2022-11-24T11:04:57;13.50;;;4.23;;
14060;SDS011;7105;43.616;1.434;2022-11-24T11:07:43;10.33;;;4.10;;
14060;SDS011;7105;43.616;1.434;2022-11-24T11:10:19;9.17;;;4.23;;
14060;SDS011;7105;43.616;1.434;2022-11-24T11:12:48;11.57;;;5.03;;
14060;SDS011;7105;43.616;1.434;2022-11-24T11:15:27;13.00;;;4.87;;
14060;SDS011;7105;43.616;1.434;2022-11-24T11:17:56;14.50;;;4.40;;
14060;SDS011;7105;43.616;1.434;2022-11-24T11:20:26;12.80;;;4.33;;
14060;SDS011;7105;43.616;1.434;2022-11-24T11:22:54;12.37;;;4.07;;
14060;SDS011;7105;43.616;1.434;2022-11-24T11:25:23;14.73;;;4.67;;
14060;SDS011;7105;43.616;1.434;2022-11-24T11:28:41;13.60;;;4.00;;
14060;SDS011;7105;43.616;1.434;2022-11-24T11:33:53;10.87;;;4.30;;
14060;SDS011;7105;43.616;1.434;2022-11-24T11:36:20;13.77;;;4.40;;
14060;SDS011;7105;43.616;1.434;2022-11-24T11:38:46;10.73;;;3.30;;
14060;SDS011;7105;43.616;1.434;2022-11-24T11:41:15;10.60;;;3.80;;
14060;SDS011;7105;43.616;1.434;2022-11-24T11:43:45;9.90;;;2.80;;
14060;SDS011;7105;43.616;1.434;2022-11-24T11:46:18;13.93;;;3.80;;
14060;SDS011;7105;43.616;1.434;2022-11-24T11:48:45;10.73;;;3.40;;
14060;SDS011;7105;43.616;1.434;2022-11-24T11:54:00;12.80;;;4.03;;
14060;SDS011;7105;43.616;1.434;2022-11-24T11:56:36;11.07;;;3.00;;
14060;SDS011;7105;43.616;1.434;2022-11-24T12:06:58;8.33;;;3.37;;
14060;SDS011;7105;43.616;1.434;2022-11-24T12:15:51;11.37;;;3.40;;
14060;SDS011;7105;43.616;1.434;2022-11-24T12:18:29;10.77;;;3.60;;
14060;SDS011;7105;43.616;1.434;2022-11-24T12:21:17;9.00;;;3.37;;
14060;SDS011;7105;43.616;1.434;2022-11-24T12:26:34;11.47;;;3.47;;
14060;SDS011;7105;43.616;1.434;2022-11-24T12:43:38;12.00;;;3.30;;
14060;SDS011;7105;43.616;1.434;2022-11-24T12:51:35;10.27;;;2.70;;
14060;SDS011;7105;43.616;1.434;2022-11-24T12:54:07;8.57;;;3.00;;
14060;SDS011;7105;43.616;1.434;2022-11-24T12:59:32;5.83;;;2.20;;
14060;SDS011;7105;43.616;1.434;2022-11-24T13:04:45;7.33;;;2.73;;
14060;SDS011;7105;43.616;1.434;2022-11-24T13:07:40;12.33;;;3.10;;
14060;SDS011;7105;43.616;1.434;2022-11-24T13:13:21;9.17;;;2.63;;
14060;SDS011;7105;43.616;1.434;2022-11-24T13:23:55;8.53;;;2.67;;
14060;SDS011;7105;43.616;1.434;2022-11-24T13:26:27;10.00;;;2.60;;
14060;SDS011;7105;43.616;1.434;2022-11-24T13:29:02;8.93;;;3.27;;
14060;SDS011;7105;43.616;1.434;2022-11-24T13:31:29;12.17;;;2.37;;
14060;SDS011;7105;43.616;1.434;2022-11-24T13:33:55;11.50;;;4.10;;
14060;SDS011;7105;43.616;1.434;2022-11-24T13:49:41;14.63;;;2.63;;
14060;SDS011;7105;43.616;1.434;2022-11-24T14:00:24;10.63;;;3.73;;
14060;SDS011;7105;43.616;1.434;2022-11-24T14:02:53;14.17;;;4.80;;
14060;SDS011;7105;43.616;1.434;2022-11-24T14:05:59;12.67;;;4.50;;
14060;SDS011;7105;43.616;1.434;2022-11-24T14:08:27;9.57;;;3.23;;
14060;SDS011;7105;43.616;1.434;2022-11-24T14:10:59;10.13;;;3.30;;
14060;SDS011;7105;43.616;1.434;2022-11-24T14:13:27;12.13;;;2.70;;
14060;SDS011;7105;43.616;1.434;2022-11-24T14:16:36;12.50;;;3.03;;
14060;SDS011;7105;43.616;1.434;2022-11-24T14:18:48;10.70;;;2.93;;
14060;SDS011;7105;43.616;1.434;2022-11-24T14:21:28;10.13;;;2.93;;
14060;SDS011;7105;43.616;1.434;2022-11-24T14:23:58;18.83;;;3.17;;
14060;SDS011;7105;43.616;1.434;2022-11-24T14:26:39;13.23;;;3.00;;
14060;SDS011;7105;43.616;1.434;2022-11-24T14:29:06;12.50;;;3.23;;
14060;SDS011;7105;43.616;1.434;2022-11-24T14:31:35;12.90;;;2.90;;
14060;SDS011;7105;43.616;1.434;2022-11-24T14:36:35;10.87;;;2.90;;
14060;SDS011;7105;43.616;1.434;2022-11-24T14:39:02;9.47;;;2.63;;
14060;SDS011;7105;43.616;1.434;2022-11-24T14:41:28;11.37;;;2.73;;
14060;SDS011;7105;43.616;1.434;2022-11-24T14:44:04;8.37;;;2.33;;
14060;SDS011;7105;43.616;1.434;2022-11-24T14:46:36;11.13;;;2.83;;
14060;SDS011;7105;43.616;1.434;2022-11-24T14:49:02;12.03;;;2.57;;
14060;SDS011;7105;43.616;1.434;2022-11-24T14:51:29;11.97;;;2.70;;
14060;SDS011;7105;43.616;1.434;2022-11-24T14:54:02;7.67;;;2.53;;
14060;SDS011;7105;43.616;1.434;2022-11-24T14:56:35;12.43;;;3.50;;
14060;SDS011;7105;43.616;1.434;2022-11-24T14:59:02;8.67;;;2.20;;
14060;SDS011;7105;43.616;1.434;2022-11-24T15:01:42;8.43;;;2.73;;
14060;SDS011;7105;43.616;1.434;2022-11-24T15:06:48;13.10;;;3.00;;
14060;SDS011;7105;43.616;1.434;2022-11-24T15:11:56;10.67;;;3.57;;
14060;SDS011;7105;43.616;1.434;2022-11-24T15:16:55;9.50;;;2.90;;
14060;SDS011;7105;43.616;1.434;2022-11-24T15:19:22;11.70;;;3.70;;
14060;SDS011;7105;43.616;1.434;2022-11-24T15:21:50;8.50;;;3.43;;
14060;SDS011;7105;43.616;1.434;2022-11-24T15:24:17;13.10;;;3.57;;
14060;SDS011;7105;43.616;1.434;2022-11-24T15:26:43;13.43;;;4.00;;
14060;SDS011;7105;43.616;1.434;2022-11-24T15:29:10;11.27;;;3.13;;
14060;SDS011;7105;43.616;1.434;2022-11-24T15:31:37;11.13;;;3.93;;
14060;SDS011;7105;43.616;1.434;2022-11-24T15:34:03;11.40;;;4.33;;
14060;SDS011;7105;43.616;1.434;2022-11-24T15:36:29;11.97;;;3.47;;
14060;SDS011;7105;43.616;1.434;2022-11-24T15:38:54;13.23;;;3.87;;
14060;SDS011;7105;43.616;1.434;2022-11-24T15:41:20;14.33;;;3.67;;
14060;SDS011;7105;43.616;1.434;2022-11-24T15:43:48;12.70;;;3.73;;
14060;SDS011;7105;43.616;1.434;2022-11-24T15:46:14;12.00;;;3.83;;
14060;SDS011;7105;43.616;1.434;2022-11-24T15:48:40;15.93;;;3.53;;
14060;SDS011;7105;43.616;1.434;2022-11-24T15:51:07;13.73;;;3.70;;
14060;SDS011;7105;43.616;1.434;2022-11-24T15:56:05;11.20;;;3.97;;
14060;SDS011;7105;43.616;1.434;2022-11-24T15:58:36;14.60;;;4.20;;
14060;SDS011;7105;43.616;1.434;2022-11-24T16:01:02;11.30;;;4.70;;
14060;SDS011;7105;43.616;1.434;2022-11-24T16:03:27;12.43;;;3.50;;
14060;SDS011;7105;43.616;1.434;2022-11-24T16:05:53;12.73;;;3.50;;
14060;SDS011;7105;43.616;1.434;2022-11-24T16:08:20;13.00;;;4.00;;
14060;SDS011;7105;43.616;1.434;2022-11-24T16:10:46;12.83;;;3.17;;
14060;SDS011;7105;43.616;1.434;2022-11-24T16:13:12;12.63;;;3.83;;
14060;SDS011;7105;43.616;1.434;2022-11-24T16:15:38;15.47;;;4.17;;
14060;SDS011;7105;43.616;1.434;2022-11-24T16:18:04;15.60;;;4.53;;
14060;SDS011;7105;43.616;1.434;2022-11-24T16:20:31;13.53;;;4.10;;
14060;SDS011;7105;43.616;1.434;2022-11-24T16:22:59;14.40;;;4.93;;
14060;SDS011;7105;43.616;1.434;2022-11-24T16:25:26;15.53;;;5.03;;
14060;SDS011;7105;43.616;1.434;2022-11-24T16:27:51;13.53;;;4.83;;
14060;SDS011;7105;43.616;1.434;2022-11-24T16:30:17;11.63;;;4.07;;
14060;SDS011;7105;43.616;1.434;2022-11-24T16:32:43;14.47;;;4.87;;
14060;SDS011;7105;43.616;1.434;2022-11-24T16:35:08;13.53;;;5.63;;
14060;SDS011;7105;43.616;1.434;2022-11-24T16:37:34;18.43;;;7.63;;
14060;SDS011;7105;43.616;1.434;2022-11-24T16:40:00;24.60;;;9.23;;
14060;SDS011;7105;43.616;1.434;2022-11-24T16:42:26;29.20;;;14.07;;
14060;SDS011;7105;43.616;1.434;2022-11-24T16:44:52;25.43;;;10.23;;
14060;SDS011;7105;43.616;1.434;2022-11-24T16:47:18;14.20;;;6.00;;
14060;SDS011;7105;43.616;1.434;2022-11-24T16:49:44;14.27;;;5.87;;
14060;SDS011;7105;43.616;1.434;2022-11-24T16:52:11;20.17;;;7.17;;
14060;SDS011;7105;43.616;1.434;2022-11-24T16:54:36;21.07;;;6.20;;
14060;SDS011;7105;43.616;1.434;2022-11-24T16:57:02;17.53;;;6.27;;
14060;SDS011;7105;43.616;1.434;2022-11-24T16:59:28;22.83;;;6.17;;
14060;SDS011;7105;43.616;1.434;2022-11-24T17:01:53;18.43;;;6.73;;
14060;SDS011;7105;43.616;1.434;2022-11-24T17:04:19;19.67;;;7.33;;
14060;SDS011;7105;43.616;1.434;2022-11-24T17:06:45;19.93;;;7.60;;